ftp/pub/mcmurdo/arrivalheights/2008/May/080509.txt

Download

5/9/08
Time         Wind Dir   Wind Spd  Wind Gust     Hum In   Humidity    Temp In       Temp  Raw Barom   Tot Rain
                    °        kts        kts          %          %         °C         °C         mb         mm
0:00               37         10         12         28        100       18.4      -21.6     982.67       0.00
0:20               42         10         13         22        100       18.7      -20.3     982.60       0.00
0:40               38         13         13         24        100       18.6      -20.4     982.67       0.00
1:00               43         10         13         27        100       18.5      -20.3     982.77       0.00
1:20               43         11         12         29        100       18.4      -20.1     982.74       0.00
1:40               40         11         15         30        100       18.4      -20.6     982.84       0.00
2:00               38         14         17         25        100       18.6      -22.3     982.87       0.00
2:20               32         14         16         21        100       18.8      -22.4     982.87       0.00
2:40               23          8         12         26        100       18.8      -21.4     982.94       0.00
3:00                4         10         11         29        100       18.7      -21.8     982.91       0.00
3:20              340          6          7         31        100       18.6      -20.4     983.08       0.00
3:40              320          3          5         25        100       18.8      -20.6     983.08       0.00
4:00              316          0          0         22        100       19.0      -20.3     983.11       0.00
4:20              316          2          3         24        100       19.1      -19.9     983.35       0.00
4:40              333          7          8         29        100       19.1      -19.7     983.25       0.00
5:00              342          8          8         29        100       19.1      -19.7     983.38       0.00
5:20              325          6          6         24        100       19.2      -19.4     983.28       0.00
5:40              345          6          6         22        100       19.4      -19.4     983.31       0.00
6:00              349          8          8         27        100       19.3      -20.2     983.45       0.00
6:20              350          6          7         30        100       19.2      -20.0     983.41       0.00
6:40              350          8          9         31        100       19.1      -20.2     983.31       0.00
7:00              340         10         11         24        100       19.3      -20.1     983.48       0.00
7:20              348          7          8         22        100       19.3      -19.7     983.62       0.00
7:40              337          5          6         26        100       19.3      -19.6     983.65       0.00
8:00              333          6          6         30        100       19.2      -20.3     983.79       0.00
8:20              332          6          7         31        100       19.3      -20.3     983.82       0.00
8:40              344          6          7         25        100       19.6      -20.2     983.79       0.00
9:00              326          7          7         23        100       19.8      -20.2     983.92       0.00
9:20              327          3          3         26        100       19.8      -20.6     984.19       0.00
9:40              326          3          3         29        100       19.7      -20.1     984.30       0.00
10:00             322          2          3         32        100       19.7      -20.3     984.26       0.00
10:20             322          1          3         30        100       19.9      -20.2     984.53       0.00
10:40             322          1          1         25        100       20.2      -20.1     984.53       0.00
11:00             322          0          0         22        100       20.4      -20.4     984.53       0.00
11:20             322          0          1         27        100       20.4      -20.1     984.60       0.00
11:40             322          1          1         30        100       20.4      -21.4     984.63       0.00
12:00             322          0          1         32        100       20.4      -21.6     984.63       0.00
12:20             325          3          3         29        100       20.5      -21.4     984.70       0.00
12:40             327          0          0         24        100       20.8      -21.3     984.80       0.00
13:00             327          0          0         23        100       19.9      -21.7     984.80       0.00
13:20             327          2          3         29        100       19.6      -22.0     984.80       0.00
13:40             327          2          2         31        100       19.6      -21.9     984.80       0.00
14:00             327          2          3         30        100       19.8      -21.8     984.70       0.00
14:20             331          3          3         25        100       20.1      -21.8     984.80       0.00
14:40             334          0          0         22        100       20.3      -21.6     985.01       0.00
15:00             334          0          1         28        100       20.3      -21.8     984.87       0.00
15:20             334          0          0         31        100       20.3      -21.0     984.90       0.00
15:40             334          3          3         33        100       20.3      -21.8     984.97       0.00
16:00             341          0          0         27        100       20.6      -22.1     985.11       0.00
16:20             341          0          1         23        100       20.8      -22.3     985.14       0.00
16:40             341          2          3         25        100       19.8      -23.3     985.28       0.00
17:00             341          1          2         29        100       19.6      -23.2     985.38       0.00
17:20             342          3          3         31        100       19.6      -22.8     985.31       0.00
17:40             344          1          2         32        100       19.7      -23.4     985.24       0.00
18:00             344          3          3         25        100       20.1      -23.5     985.28       0.00
18:20             345          0          1         23        100       20.3      -23.0     985.41       0.00
18:40             345          2          2         28        100       20.3      -22.2     985.38       0.00
19:00             358          1          2         30        100       20.2      -23.8     985.48       0.00
19:20             358          2          3         32        100       20.3      -23.8     985.55       0.00
19:40             358          3          3         33        100       20.3      -23.4     985.55       0.00
20:00               0          0          2         25        100       20.5      -23.4     985.51       0.00
20:20               0          2          3         23        100       20.7      -22.7     985.65       0.00
20:40               0          0          1         28        100       20.7      -22.2     985.45       0.00
21:00               0          1          3         31        100       20.6      -22.4     985.58       0.00
21:20               0          4          4         32        100       20.6      -22.1     985.55       0.00
21:40               0          0          0         29        100       20.7      -22.2     985.55       0.00
22:00               0          1          2         23        100       20.7      -21.6     985.55       0.00
22:20               0          2          3         27        100       19.7      -22.6     985.65       0.00
22:40               0          0          1         31        100       19.6      -21.8     985.65       0.00
23:00               0          3          3         32        100       19.7      -22.1     985.48       0.00
23:20               0          0          0         29        100       19.9      -21.6     985.48       0.00
23:40               0          3          3         25        100       20.2      -21.8     985.41       0.00